Time;durP1;ratioP1;P1;durP2;ratioP2;P2;SDS_P1;SDS_P2;PMS_P1;PMS_P2;Temp;Humidity;BMP_temperature;BMP_pressure;BME280_temperature;BME280_humidity;BME280_pressure;Samples;Min_cycle;Max_cycle;Signal;HPM_P1;HPM_P2
2021/12/28 00:00:41;;;;;;;0.10;0.10;;;8.10;99.90;;;;;;9176714;19;20029;-70
2021/12/28 00:03:49;;;;;;;0.20;0.20;;;8.10;99.90;;;;;;9176094;19;20450;-70
2021/12/28 00:06:54;;;;;;;0.13;0.13;;;8.10;99.90;;;;;;9176348;19;20025;-70
2021/12/28 00:09:59;;;;;;;0.10;0.10;;;8.10;99.90;;;;;;9175266;19;20025;-70
2021/12/28 00:13:04;;;;;;;0.10;0.10;;;8.10;99.90;;;;;;9175653;19;20052;-70
2021/12/28 00:16:30;;;;;;;0.38;0.20;;;8.10;99.90;;;;;;9178004;19;20018;-70
2021/12/28 00:19:38;;;;;;;0.00;0.00;;;8.20;99.90;;;;;;9177838;19;20029;-70
2021/12/28 00:22:43;;;;;;;0.10;0.10;;;8.20;99.90;;;;;;9176667;19;20018;-70
2021/12/28 00:25:50;;;;;;;0.20;0.20;;;8.20;99.90;;;;;;9174097;19;20014;-70
2021/12/28 00:28:55;;;;;;;0.20;0.20;;;8.20;99.90;;;;;;9176047;19;20006;-70
2021/12/28 00:32:00;;;;;;;0.10;0.10;;;8.20;99.90;;;;;;9173725;19;20018;-70
2021/12/28 00:35:08;;;;;;;0.13;0.13;;;8.30;99.90;;;;;;9176112;19;20025;-69
2021/12/28 00:38:18;;;;;;;0.10;0.10;;;8.30;99.90;;;;;;9174651;19;20366;-70
2021/12/28 00:41:23;;;;;;;0.28;0.17;;;8.30;99.90;;;;;;9175022;19;20352;-70
2021/12/28 00:44:28;;;;;;;0.20;0.20;;;8.30;99.90;;;;;;9175386;19;20115;-70
2021/12/28 00:47:33;;;;;;;0.20;0.20;;;8.30;99.90;;;;;;9172002;19;20450;-70
2021/12/28 00:50:41;;;;;;;0.10;0.10;;;8.40;99.90;;;;;;9172891;19;20023;-70
2021/12/28 00:53:46;;;;;;;0.25;0.10;;;8.40;99.90;;;;;;9169463;19;20030;-70
2021/12/28 00:56:51;;;;;;;0.20;0.20;;;8.40;99.90;;;;;;9173907;19;20391;-70
2021/12/28 00:59:56;;;;;;;0.10;0.10;;;8.40;99.90;;;;;;9174511;19;20025;-70
2021/12/28 01:03:03;;;;;;;0.20;0.20;;;8.40;99.90;;;;;;9175056;19;20022;-70
2021/12/28 01:06:11;;;;;;;0.15;0.15;;;8.40;99.90;;;;;;9173966;19;20029;-70
2021/12/28 01:09:16;;;;;;;0.10;0.10;;;8.50;99.90;;;;;;9172622;19;20018;-70
2021/12/28 01:12:22;;;;;;;0.25;0.10;;;8.50;99.90;;;;;;9172104;19;20505;-70
2021/12/28 01:15:30;;;;;;;0.13;0.13;;;8.50;99.90;;;;;;9172848;19;20367;-71
2021/12/28 01:18:35;;;;;;;0.28;0.20;;;8.50;99.90;;;;;;9175425;19;20026;-70
2021/12/28 01:21:43;;;;;;;0.20;0.20;;;8.50;99.90;;;;;;9173681;19;20011;-70
2021/12/28 01:24:48;;;;;;;0.10;0.10;;;8.50;99.90;;;;;;9174537;19;20360;-70
2021/12/28 01:27:54;;;;;;;0.15;0.10;;;8.50;99.90;;;;;;9173689;19;20019;-70
2021/12/28 01:30:59;;;;;;;0.10;0.10;;;8.50;99.90;;;;;;9174683;19;20014;-70
2021/12/28 01:34:04;;;;;;;0.03;0.03;;;8.50;99.90;;;;;;9180447;19;20022;-70
2021/12/28 01:37:12;;;;;;;0.30;0.20;;;8.60;99.90;;;;;;9179565;19;20483;-70
2021/12/28 01:40:20;;;;;;;0.20;0.20;;;8.50;99.90;;;;;;9183222;19;20345;-70
2021/12/28 01:43:27;;;;;;;0.10;0.10;;;8.50;99.90;;;;;;9183551;19;20382;-70
2021/12/28 01:46:32;;;;;;;0.10;0.10;;;8.60;99.90;;;;;;9185366;19;20019;-70
2021/12/28 01:49:37;;;;;;;0.20;0.20;;;8.60;99.90;;;;;;9180115;19;20034;-70
2021/12/28 01:52:45;;;;;;;0.20;0.20;;;8.60;99.90;;;;;;9180414;19;20019;-70
2021/12/28 01:55:52;;;;;;;0.28;0.20;;;8.60;99.90;;;;;;9176531;19;20022;-70
2021/12/28 01:58:59;;;;;;;0.40;0.20;;;8.50;99.90;;;;;;9181613;19;20053;-70
2021/12/28 02:02:03;;;;;;;0.30;0.13;;;8.50;99.90;;;;;;9180319;19;20014;-70
2021/12/28 02:05:10;;;;;;;0.10;0.10;;;8.50;99.90;;;;;;9181177;19;20017;-71
2021/12/28 02:08:18;;;;;;;0.10;0.10;;;8.50;99.90;;;;;;9179244;19;20022;-70
2021/12/28 02:11:24;;;;;;;0.22;0.22;;;8.60;99.90;;;;;;9177691;19;20027;-70
2021/12/28 02:14:29;;;;;;;0.30;0.30;;;8.50;99.90;;;;;;9180361;19;20520;-70
2021/12/28 02:17:35;;;;;;;0.20;0.20;;;8.50;99.90;;;;;;9177943;19;20037;-70
2021/12/28 02:20:43;;;;;;;0.17;0.17;;;8.50;99.90;;;;;;9180964;19;20383;-70
2021/12/28 02:23:48;;;;;;;0.10;0.10;;;8.50;99.90;;;;;;9181536;19;20020;-70
2021/12/28 02:26:53;;;;;;;0.25;0.25;;;8.50;99.90;;;;;;9176369;19;20019;-70
2021/12/28 02:29:58;;;;;;;0.20;0.20;;;8.50;99.90;;;;;;9177512;19;20014;-70
2021/12/28 02:33:03;;;;;;;0.30;0.30;;;8.40;99.90;;;;;;9179875;19;20040;-70
2021/12/28 02:36:11;;;;;;;0.20;0.20;;;8.40;99.90;;;;;;9179127;19;20021;-70
2021/12/28 02:39:16;;;;;;;0.63;0.30;;;8.40;99.90;;;;;;9182117;19;20030;-70
2021/12/28 02:42:24;;;;;;;0.30;0.30;;;8.40;99.90;;;;;;9179503;19;20067;-70
2021/12/28 02:45:31;;;;;;;0.25;0.25;;;8.30;99.90;;;;;;9177041;19;20503;-70
2021/12/28 02:48:38;;;;;;;0.30;0.30;;;8.30;99.90;;;;;;9176659;19;20372;-70
2021/12/28 02:51:45;;;;;;;0.30;0.30;;;8.20;99.90;;;;;;9179487;19;20369;-70
2021/12/28 02:54:50;;;;;;;0.60;0.38;;;8.20;99.90;;;;;;9176701;19;20355;-70
2021/12/28 02:57:58;;;;;;;0.30;0.30;;;8.20;99.90;;;;;;9180569;19;20471;-70
2021/12/28 03:01:08;;;;;;;0.20;0.20;;;8.10;99.90;;;;;;9178909;19;20015;-70
2021/12/28 03:04:14;;;;;;;0.80;0.43;;;8.10;99.90;;;;;;9176275;19;20019;-70
2021/12/28 03:07:22;;;;;;;0.20;0.20;;;8.10;99.90;;;;;;9177352;19;20052;-71
2021/12/28 03:10:27;;;;;;;0.30;0.30;;;8.00;99.90;;;;;;9176027;19;20025;-70
2021/12/28 03:13:40;;;;;;;0.25;0.25;;;8.00;99.90;;;;;;9178283;19;20019;-70
2021/12/28 03:16:45;;;;;;;0.28;0.28;;;8.00;99.90;;;;;;9176873;19;20018;-70
2021/12/28 03:19:50;;;;;;;0.88;0.30;;;8.00;99.90;;;;;;9178963;19;20010;-71
2021/12/28 03:22:58;;;;;;;0.28;0.20;;;7.90;99.90;;;;;;9175923;19;20023;-70
2021/12/28 03:26:03;;;;;;;0.70;0.40;;;7.80;99.90;;;;;;9176059;19;20025;-70
2021/12/28 03:29:09;;;;;;;0.20;0.20;;;7.80;99.90;;;;;;9176447;19;20018;-70
2021/12/28 03:32:14;;;;;;;0.43;0.22;;;7.80;99.90;;;;;;9178151;19;20534;-70
2021/12/28 03:35:19;;;;;;;0.47;0.47;;;7.80;99.90;;;;;;9179358;19;20033;-70
2021/12/28 03:38:27;;;;;;;0.30;0.20;;;7.80;99.90;;;;;;9179630;19;20033;-70
2021/12/28 03:41:33;;;;;;;0.32;0.17;;;7.70;99.90;;;;;;9180278;19;20011;-70
2021/12/28 03:44:39;;;;;;;0.35;0.22;;;7.80;99.90;;;;;;9176975;19;20025;-70
2021/12/28 03:47:45;;;;;;;0.30;0.30;;;7.70;99.90;;;;;;9175336;19;20115;-70
2021/12/28 03:50:50;;;;;;;0.57;0.40;;;7.70;99.90;;;;;;9175231;19;20982;-70
2021/12/28 03:53:57;;;;;;;0.17;0.17;;;7.70;99.90;;;;;;9170430;19;20393;-70
2021/12/28 03:57:02;;;;;;;0.32;0.22;;;7.70;99.90;;;;;;9178098;19;20386;-70
2021/12/28 04:00:10;;;;;;;0.40;0.25;;;7.70;99.90;;;;;;9177978;19;20499;-70
2021/12/28 04:03:15;;;;;;;0.40;0.30;;;7.70;99.90;;;;;;9179237;19;20034;-70
2021/12/28 04:06:21;;;;;;;0.52;0.20;;;7.70;99.90;;;;;;9171984;19;20029;-70
2021/12/28 04:09:56;;;;;;;0.38;0.30;;;7.70;99.90;;;;;;9175584;19;20025;-70
2021/12/28 04:13:02;;;;;;;0.20;0.10;;;7.70;99.90;;;;;;9174728;19;20015;-70
2021/12/28 04:16:07;;;;;;;0.32;0.20;;;7.70;99.90;;;;;;9175562;19;20007;-69
2021/12/28 04:19:12;;;;;;;0.15;0.15;;;7.70;99.90;;;;;;9175201;19;20403;-70
2021/12/28 04:22:18;;;;;;;0.20;0.20;;;7.70;99.90;;;;;;9177861;19;20021;-70
2021/12/28 04:25:25;;;;;;;0.20;0.20;;;7.70;99.90;;;;;;9177669;19;20370;-70
2021/12/28 04:28:30;;;;;;;0.28;0.28;;;7.70;99.90;;;;;;9176764;19;20025;-70
2021/12/28 04:31:35;;;;;;;0.38;0.38;;;7.70;99.90;;;;;;9174280;19;20015;-70
2021/12/28 04:34:41;;;;;;;0.43;0.20;;;7.60;99.90;;;;;;9174188;19;20050;-71
2021/12/28 04:37:46;;;;;;;0.43;0.20;;;7.60;99.90;;;;;;9176209;19;20486;-70
2021/12/28 04:40:54;;;;;;;0.10;0.10;;;7.70;99.90;;;;;;9176333;19;20021;-71
2021/12/28 04:44:00;;;;;;;0.30;0.15;;;7.70;99.90;;;;;;9176639;19;20018;-70
2021/12/28 04:47:06;;;;;;;0.20;0.10;;;7.70;99.90;;;;;;9175960;19;20014;-71
2021/12/28 04:50:13;;;;;;;0.38;0.30;;;7.70;99.90;;;;;;9173655;19;20598;-70
2021/12/28 04:53:18;;;;;;;0.30;0.20;;;7.70;99.90;;;;;;9169874;19;20340;-71
2021/12/28 04:56:26;;;;;;;0.47;0.22;;;7.70;99.90;;;;;;9171143;19;20025;-71
2021/12/28 04:59:30;;;;;;;0.20;0.13;;;7.70;99.90;;;;;;9172913;19;20030;-70
2021/12/28 05:02:36;;;;;;;0.10;0.10;;;7.70;99.90;;;;;;9175692;19;20022;-70
2021/12/28 05:05:45;;;;;;;0.20;0.15;;;7.70;99.90;;;;;;9180074;19;20451;-70
2021/12/28 05:08:50;;;;;;;0.17;0.15;;;7.70;99.90;;;;;;9183097;19;20026;-71
2021/12/28 05:11:58;;;;;;;0.22;0.20;;;7.70;99.90;;;;;;9179962;19;20025;-71
2021/12/28 05:15:03;;;;;;;0.20;0.10;;;7.70;99.90;;;;;;9180469;19;20341;-70
2021/12/28 05:18:08;;;;;;;0.73;0.40;;;7.70;99.90;;;;;;9181278;19;20722;-71
2021/12/28 05:21:13;;;;;;;0.10;0.10;;;7.70;99.90;;;;;;9182358;19;20010;-70
2021/12/28 05:24:18;;;;;;;0.32;0.20;;;7.70;99.90;;;;;;9183255;19;20018;-70
2021/12/28 05:27:26;;;;;;;0.30;0.20;;;7.70;99.90;;;;;;9184222;19;20018;-70
2021/12/28 05:30:31;;;;;;;0.30;0.28;;;7.70;99.90;;;;;;9183300;19;20048;-71
2021/12/28 05:33:36;;;;;;;0.30;0.30;;;7.60;99.90;;;;;;9181863;19;20025;-70
2021/12/28 05:36:41;;;;;;;0.38;0.20;;;7.70;99.90;;;;;;9181103;19;20029;-70
2021/12/28 05:39:46;;;;;;;0.55;0.20;;;7.60;99.90;;;;;;9182063;19;20022;-70
2021/12/28 05:42:54;;;;;;;0.38;0.13;;;7.60;99.90;;;;;;9180948;19;20010;-71
2021/12/28 05:45:59;;;;;;;0.35;0.20;;;7.60;99.90;;;;;;9182945;19;20019;-70
2021/12/28 05:49:05;;;;;;;1.45;0.38;;;7.60;99.90;;;;;;9183535;19;20383;-70
2021/12/28 05:52:10;;;;;;;0.80;0.38;;;7.60;99.90;;;;;;9179606;19;20017;-70
2021/12/28 05:55:15;;;;;;;0.50;0.28;;;7.70;99.90;;;;;;9175137;19;20510;-70
2021/12/28 05:58:22;;;;;;;0.38;0.30;;;7.60;99.90;;;;;;9178492;19;20022;-70
2021/12/28 06:01:28;;;;;;;0.77;0.40;;;7.60;99.90;;;;;;9178905;19;20029;-70
2021/12/28 06:04:33;;;;;;;0.40;0.30;;;7.60;99.90;;;;;;9180470;19;20011;-70
2021/12/28 06:07:38;;;;;;;1.23;0.52;;;7.60;99.90;;;;;;9181940;19;20474;-71
2021/12/28 06:10:43;;;;;;;0.50;0.22;;;7.70;99.90;;;;;;9180800;19;20360;-70
2021/12/28 06:13:51;;;;;;;0.65;0.40;;;7.70;99.90;;;;;;9179946;19;20054;-71
2021/12/28 06:16:56;;;;;;;0.50;0.30;;;7.70;99.90;;;;;;9178131;19;20111;-71
2021/12/28 06:20:01;;;;;;;0.20;0.20;;;7.70;99.90;;;;;;9179443;19;20019;-70
2021/12/28 06:23:07;;;;;;;1.17;0.40;;;7.70;99.90;;;;;;9179205;19;20514;-70
2021/12/28 06:26:12;;;;;;;0.38;0.30;;;7.70;99.90;;;;;;9179500;19;20022;-70
2021/12/28 06:29:19;;;;;;;0.73;0.30;;;7.70;99.90;;;;;;9180759;19;20033;-70
2021/12/28 06:32:25;;;;;;;0.95;0.30;;;7.70;99.90;;;;;;9179730;19;20078;-70
2021/12/28 06:35:30;;;;;;;0.52;0.20;;;7.60;99.90;;;;;;9176492;19;20022;-71
2021/12/28 06:38:35;;;;;;;0.55;0.25;;;7.70;99.90;;;;;;9176706;19;20021;-71
2021/12/28 06:41:41;;;;;;;0.75;0.40;;;7.70;99.90;;;;;;9181237;19;20029;-71
2021/12/28 06:44:51;;;;;;;0.38;0.13;;;7.70;99.90;;;;;;9180560;19;20673;-70
2021/12/28 06:47:56;;;;;;;0.68;0.30;;;7.70;99.90;;;;;;9181317;19;20018;-70
2021/12/28 06:51:01;;;;;;;0.82;0.38;;;7.70;99.90;;;;;;9179600;19;20026;-71
2021/12/28 06:54:07;;;;;;;0.93;0.30;;;7.60;99.90;;;;;;9176433;19;20021;-70
2021/12/28 06:57:13;;;;;;;0.40;0.20;;;7.60;99.90;;;;;;9176211;19;20014;-70
2021/12/28 07:00:22;;;;;;;0.85;0.30;;;7.70;99.90;;;;;;9178463;19;20025;-71
2021/12/28 07:03:27;;;;;;;0.30;0.10;;;7.60;99.90;;;;;;9176588;19;20018;-70
2021/12/28 07:06:32;;;;;;;0.65;0.30;;;7.70;99.90;;;;;;9177393;19;20648;-70
2021/12/28 07:09:37;;;;;;;1.10;0.28;;;7.70;99.90;;;;;;9178916;19;20471;-70
2021/12/28 07:12:44;;;;;;;0.98;0.40;;;7.70;99.90;;;;;;9178076;19;20022;-71
2021/12/28 07:15:51;;;;;;;0.95;0.32;;;7.70;99.90;;;;;;9179048;19;20497;-71
2021/12/28 07:18:56;;;;;;;0.95;0.30;;;7.70;99.90;;;;;;9171986;19;20025;-71
2021/12/28 07:22:02;;;;;;;1.17;0.47;;;7.70;99.90;;;;;;9169952;19;20017;-70
2021/12/28 07:25:08;;;;;;;0.90;0.30;;;7.70;99.90;;;;;;9173507;19;20018;-71
2021/12/28 07:28:13;;;;;;;0.40;0.30;;;7.70;99.90;;;;;;9174119;19;20022;-70
2021/12/28 07:31:25;;;;;;;1.27;0.30;;;7.70;99.90;;;;;;9179559;19;20019;-71
2021/12/28 07:34:31;;;;;;;0.70;0.40;;;7.70;99.90;;;;;;9177667;19;20022;-70
2021/12/28 07:37:36;;;;;;;0.22;0.17;;;7.70;99.90;;;;;;9175790;19;20056;-71
2021/12/28 07:40:41;;;;;;;0.50;0.20;;;7.70;99.90;;;;;;9172725;19;20016;-70
2021/12/28 07:43:46;;;;;;;1.20;0.40;;;7.70;99.90;;;;;;9168960;19;20022;-70
2021/12/28 07:46:54;;;;;;;1.00;0.40;;;7.70;99.90;;;;;;9171068;19;20038;-70
2021/12/28 07:49:59;;;;;;;1.20;0.40;;;7.70;99.90;;;;;;9173369;19;20015;-71
2021/12/28 07:53:04;;;;;;;1.50;0.40;;;7.70;99.90;;;;;;9169620;19;20014;-71
2021/12/28 07:56:09;;;;;;;1.58;0.50;;;7.70;99.90;;;;;;9176378;19;20022;-71
2021/12/28 07:59:14;;;;;;;0.73;0.30;;;7.70;99.90;;;;;;9170476;19;20025;-71
2021/12/28 08:02:23;;;;;;;0.45;0.20;;;7.70;99.90;;;;;;9168737;19;20014;-71
2021/12/28 08:05:28;;;;;;;0.25;0.20;;;7.70;99.90;;;;;;9169007;19;20479;-71
2021/12/28 08:08:33;;;;;;;0.73;0.47;;;7.70;99.90;;;;;;9168597;19;20019;-70
2021/12/28 08:11:38;;;;;;;1.05;0.40;;;7.70;99.90;;;;;;9173556;19;20025;-71
2021/12/28 08:14:44;;;;;;;0.55;0.30;;;7.70;99.90;;;;;;9173134;19;20021;-71
2021/12/28 08:17:51;;;;;;;0.88;0.20;;;7.80;99.90;;;;;;9176690;19;20025;-71
2021/12/28 08:20:56;;;;;;;1.05;0.30;;;7.70;99.90;;;;;;9179527;19;20014;-70
2021/12/28 08:24:01;;;;;;;0.95;0.30;;;7.80;99.90;;;;;;9173821;19;20029;-70
2021/12/28 08:27:07;;;;;;;1.17;0.50;;;7.80;99.90;;;;;;9173917;19;20495;-70
2021/12/28 08:30:14;;;;;;;0.63;0.28;;;7.80;99.90;;;;;;9173167;19;20519;-69
2021/12/28 08:33:22;;;;;;;0.47;0.32;;;7.80;99.90;;;;;;9174184;19;20081;-70
2021/12/28 08:36:26;;;;;;;0.93;0.40;;;7.80;99.90;;;;;;9174396;19;20349;-70
2021/12/28 08:39:32;;;;;;;0.30;0.20;;;7.90;99.90;;;;;;9175391;19;20070;-71
2021/12/28 08:42:38;;;;;;;0.30;0.20;;;7.90;99.90;;;;;;9174576;19;20013;-70
2021/12/28 08:45:44;;;;;;;0.17;0.17;;;7.90;99.90;;;;;;9173455;19;20030;-70
2021/12/28 08:48:52;;;;;;;0.52;0.38;;;7.90;99.90;;;;;;9173170;19;20026;-71
2021/12/28 08:51:57;;;;;;;0.30;0.30;;;7.90;99.90;;;;;;9174236;19;20026;-70
2021/12/28 08:55:02;;;;;;;1.45;0.40;;;8.00;99.90;;;;;;9170443;19;20022;-70
2021/12/28 08:58:07;;;;;;;1.23;0.68;;;8.00;99.90;;;;;;9173140;19;20476;-70
2021/12/28 09:01:13;;;;;;;0.60;0.30;;;8.00;99.90;;;;;;9172911;19;20014;-71
2021/12/28 09:04:21;;;;;;;1.17;0.40;;;8.00;99.90;;;;;;9172643;19;20056;-70
2021/12/28 09:07:26;;;;;;;1.05;0.40;;;8.10;99.90;;;;;;9173192;19;20034;-70
2021/12/28 09:10:34;;;;;;;0.68;0.30;;;8.10;99.90;;;;;;9174115;19;20018;-71
2021/12/28 09:13:40;;;;;;;0.70;0.30;;;8.10;99.90;;;;;;9173867;19;20030;-70
2021/12/28 09:16:45;;;;;;;0.85;0.32;;;8.10;99.90;;;;;;9174257;19;20025;-70
2021/12/28 09:19:52;;;;;;;0.88;0.28;;;8.20;99.90;;;;;;9175028;19;20018;-70
2021/12/28 09:22:57;;;;;;;0.43;0.20;;;8.20;99.90;;;;;;9174209;19;20020;-70
2021/12/28 09:26:02;;;;;;;1.17;0.30;;;8.30;99.90;;;;;;9171340;19;20483;-71
2021/12/28 09:29:08;;;;;;;0.32;0.20;;;8.30;99.90;;;;;;9173214;19;20359;-71
2021/12/28 09:32:13;;;;;;;0.65;0.30;;;8.30;99.90;;;;;;9173964;19;20015;-70
2021/12/28 09:35:21;;;;;;;0.52;0.20;;;8.40;99.90;;;;;;9174758;19;20329;-70
2021/12/28 09:38:26;;;;;;;1.23;0.40;;;8.40;99.90;;;;;;9173083;19;20022;-70
2021/12/28 09:41:31;;;;;;;0.90;0.28;;;8.50;99.90;;;;;;9175572;19;20015;-70
2021/12/28 09:44:37;;;;;;;0.32;0.20;;;8.50;99.90;;;;;;9176167;19;20015;-71
2021/12/28 09:47:43;;;;;;;1.40;0.30;;;8.50;99.90;;;;;;9170061;19;20017;-70
2021/12/28 09:50:51;;;;;;;0.60;0.22;;;8.60;99.90;;;;;;9171575;19;20471;-71
2021/12/28 09:53:56;;;;;;;1.73;0.43;;;8.60;99.90;;;;;;9175937;19;20011;-71
2021/12/28 09:57:01;;;;;;;0.98;0.40;;;8.70;99.90;;;;;;9180303;19;20023;-71
2021/12/28 10:00:09;;;;;;;0.85;0.30;;;8.70;99.90;;;;;;9181134;19;20021;-71
2021/12/28 10:03:15;;;;;;;0.47;0.20;;;8.80;99.90;;;;;;9183528;19;20017;-70
2021/12/28 10:06:25;;;;;;;0.63;0.40;;;8.80;99.90;;;;;;9181396;19;20370;-71
2021/12/28 10:09:30;;;;;;;0.25;0.10;;;8.90;99.90;;;;;;9180309;19;20018;-71
2021/12/28 10:12:37;;;;;;;0.40;0.32;;;8.90;99.90;;;;;;9180851;19;20017;-70
2021/12/28 10:15:43;;;;;;;0.82;0.40;;;8.90;99.90;;;;;;9179813;19;20029;-71
2021/12/28 10:18:48;;;;;;;0.82;0.30;;;9.00;99.90;;;;;;9176570;19;20021;-71
2021/12/28 10:21:55;;;;;;;0.40;0.22;;;9.00;99.90;;;;;;9182932;19;20430;-71
2021/12/28 10:25:03;;;;;;;0.80;0.25;;;9.10;99.90;;;;;;9181713;19;20014;-71
2021/12/28 10:28:11;;;;;;;0.77;0.32;;;9.10;99.90;;;;;;9177817;19;20482;-70
2021/12/28 10:31:22;;;;;;;0.30;0.30;;;9.20;99.90;;;;;;9172712;19;20484;-70
2021/12/28 10:34:27;;;;;;;0.30;0.17;;;9.20;99.90;;;;;;9175629;19;20018;-71
2021/12/28 10:37:37;;;;;;;0.20;0.20;;;9.20;99.90;;;;;;9170325;19;20417;-72
2021/12/28 10:40:45;;;;;;;0.32;0.17;;;9.30;99.90;;;;;;9171868;19;20353;-70
2021/12/28 10:43:55;;;;;;;0.20;0.10;;;9.30;99.90;;;;;;9169812;19;20502;-71
2021/12/28 10:47:26;;;;;;;0.10;0.10;;;9.40;99.90;;;;;;9166660;19;20029;-71
2021/12/28 10:50:35;;;;;;;0.43;0.35;;;9.40;99.90;;;;;;9168529;19;20018;-71
2021/12/28 10:53:59;;;;;;;0.15;0.10;;;9.40;99.90;;;;;;9163972;19;20034;-70
2021/12/28 10:57:05;;;;;;;0.10;0.10;;;9.40;99.90;;;;;;9168748;19;20026;-70
2021/12/28 11:00:25;;;;;;;0.13;0.10;;;9.50;99.90;;;;;;9169400;19;20025;-71
2021/12/28 11:03:35;;;;;;;0.15;0.10;;;9.50;99.90;;;;;;9171798;19;20728;-71
2021/12/28 11:06:43;;;;;;;0.20;0.13;;;9.50;99.90;;;;;;9171451;19;20085;-71
2021/12/28 11:09:52;;;;;;;0.75;0.25;;;9.50;99.90;;;;;;9173608;19;20038;-70
2021/12/28 11:12:58;;;;;;;0.52;0.10;;;9.50;99.90;;;;;;9176574;19;20478;-71
2021/12/28 11:16:04;;;;;;;1.35;0.30;;;9.60;99.90;;;;;;9177573;19;20018;-71
2021/12/28 11:19:12;;;;;;;0.93;0.17;;;9.60;99.90;;;;;;9174272;19;20017;-71
2021/12/28 11:22:17;;;;;;;0.30;0.10;;;9.60;99.90;;;;;;9172845;19;20018;-71
2021/12/28 11:25:25;;;;;;;0.10;0.00;;;9.60;99.90;;;;;;9173533;19;20025;-71
2021/12/28 11:28:31;;;;;;;0.13;0.10;;;9.60;99.90;;;;;;9175509;19;20630;-71
2021/12/28 11:31:40;;;;;;;0.35;0.15;;;9.60;99.90;;;;;;9173475;19;20022;-71
2021/12/28 11:34:46;;;;;;;0.85;0.10;;;9.70;99.90;;;;;;9172903;19;20490;-72
2021/12/28 11:37:51;;;;;;;0.00;0.00;;;9.70;99.90;;;;;;9170633;19;20581;-71
2021/12/28 11:40:59;;;;;;;0.85;0.20;;;9.70;99.90;;;;;;9170818;19;20040;-71
2021/12/28 11:44:04;;;;;;;0.00;0.00;;;9.70;99.90;;;;;;9173398;19;20022;-71
2021/12/28 11:47:11;;;;;;;0.35;0.10;;;9.80;99.90;;;;;;9173918;19;20026;-72
2021/12/28 11:50:16;;;;;;;0.20;0.00;;;9.80;99.90;;;;;;9172269;19;20014;-71
2021/12/28 11:53:22;;;;;;;0.00;0.00;;;9.80;99.90;;;;;;9168274;19;20387;-72
2021/12/28 11:56:33;;;;;;;0.03;0.03;;;9.80;99.90;;;;;;9171947;19;20048;-72
2021/12/28 11:59:40;;;;;;;0.10;0.10;;;9.80;99.90;;;;;;9172262;19;20026;-72
2021/12/28 12:02:48;;;;;;;0.10;0.10;;;9.90;99.90;;;;;;9172348;19;20783;-72
2021/12/28 12:05:54;;;;;;;0.57;0.08;;;9.90;99.90;;;;;;9172163;19;20113;-72
2021/12/28 12:09:06;;;;;;;0.00;0.00;;;9.90;99.90;;;;;;9173912;19;20018;-72
2021/12/28 12:12:19;;;;;;;0.03;0.03;;;10.00;99.90;;;;;;9173929;19;20013;-74
2021/12/28 12:15:29;;;;;;;0.00;0.00;;;10.00;99.90;;;;;;9167645;19;20561;-72
2021/12/28 12:18:47;;;;;;;0.10;0.10;;;10.00;99.90;;;;;;9171350;19;20014;-72
2021/12/28 12:22:37;;;;;;;0.00;0.00;;;10.00;99.90;;;;;;9172587;19;20379;-73
2021/12/28 12:25:53;;;;;;;0.20;0.17;;;10.10;99.90;;;;;;9169601;19;20475;-72
2021/12/28 12:29:01;;;;;;;0.08;0.00;;;10.10;99.90;;;;;;9171945;19;20025;-72
2021/12/28 12:32:07;;;;;;;0.10;0.10;;;10.10;99.90;;;;;;9171864;19;20597;-73
2021/12/28 12:35:30;;;;;;;0.20;0.10;;;10.10;99.90;;;;;;9169616;19;20349;-72
2021/12/28 12:38:39;;;;;;;0.05;0.05;;;10.10;99.90;;;;;;9172674;19;20034;-73
2021/12/28 12:41:49;;;;;;;0.10;0.10;;;10.20;99.90;;;;;;9155710;19;20123;-73
2021/12/28 12:44:56;;;;;;;0.10;0.10;;;10.20;99.90;;;;;;9171197;19;20022;-73
2021/12/28 12:48:01;;;;;;;0.00;0.00;;;10.20;99.90;;;;;;9173164;19;20356;-73
2021/12/28 12:51:35;;;;;;;0.00;0.00;;;10.20;99.90;;;;;;9171552;19;20019;-73
2021/12/28 12:54:46;;;;;;;0.00;0.00;;;10.20;99.90;;;;;;9167858;19;20014;-73
2021/12/28 12:57:53;;;;;;;0.00;0.00;;;10.20;99.90;;;;;;9172782;19;20026;-73
2021/12/28 13:01:01;;;;;;;0.30;0.05;;;10.30;99.90;;;;;;9173293;19;20060;-73
2021/12/28 13:04:27;;;;;;;0.00;0.00;;;10.30;99.90;;;;;;9172836;19;20030;-73
2021/12/28 13:07:38;;;;;;;0.00;0.00;;;10.30;99.90;;;;;;9173649;19;20023;-72
2021/12/28 13:10:43;;;;;;;0.10;0.10;;;10.30;99.90;;;;;;9166793;19;20011;-73
2021/12/28 13:13:50;;;;;;;0.40;0.00;;;10.30;99.90;;;;;;9169950;19;20027;-73
2021/12/28 13:16:58;;;;;;;0.10;0.00;;;10.30;99.90;;;;;;9171642;19;20014;-73
2021/12/28 13:20:08;;;;;;;0.20;0.05;;;10.30;99.90;;;;;;9170102;19;20478;-73
2021/12/28 13:23:16;;;;;;;0.00;0.00;;;10.30;99.90;;;;;;9172562;19;20044;-73
2021/12/28 13:26:21;;;;;;;0.00;0.00;;;10.30;99.90;;;;;;9178488;19;20038;-72
2021/12/28 13:29:28;;;;;;;0.00;0.00;;;10.30;99.90;;;;;;9178102;19;20023;-73
2021/12/28 13:32:36;;;;;;;0.00;0.00;;;10.40;99.90;;;;;;9178544;19;20022;-73
2021/12/28 13:35:43;;;;;;;0.00;0.00;;;10.40;99.90;;;;;;9176932;19;20052;-72
2021/12/28 13:38:51;;;;;;;0.00;0.00;;;10.40;99.90;;;;;;9178357;19;20021;-73
2021/12/28 13:41:56;;;;;;;0.00;0.00;;;10.40;99.90;;;;;;9180808;19;20014;-73
2021/12/28 13:45:01;;;;;;;0.10;0.08;;;10.40;99.90;;;;;;9183635;19;20034;-72
2021/12/28 13:48:18;;;;;;;0.00;0.00;;;10.40;99.90;;;;;;9178960;19;20025;-72
2021/12/28 13:51:24;;;;;;;0.10;0.00;;;10.40;99.90;;;;;;9180345;19;20023;-72
2021/12/28 13:54:32;;;;;;;0.10;0.00;;;10.40;99.90;;;;;;9173465;19;20018;-73
2021/12/28 13:57:37;;;;;;;0.10;0.00;;;10.40;99.90;;;;;;9179196;19;20710;-73
2021/12/28 14:00:42;;;;;;;0.10;0.03;;;10.40;99.90;;;;;;9178110;19;20019;-72
2021/12/28 14:03:58;;;;;;;0.13;0.08;;;10.40;99.90;;;;;;9175142;19;20037;-72
2021/12/28 14:07:04;;;;;;;0.30;0.20;;;10.30;99.90;;;;;;9176257;19;20022;-72
2021/12/28 14:10:12;;;;;;;0.55;0.20;;;10.30;99.90;;;;;;9176737;19;20022;-72
2021/12/28 14:13:19;;;;;;;0.40;0.20;;;10.30;99.90;;;;;;9177758;19;20011;-72
2021/12/28 14:16:24;;;;;;;0.45;0.20;;;10.30;99.90;;;;;;9173103;19;20717;-72
2021/12/28 14:19:32;;;;;;;0.60;0.40;;;10.20;99.90;;;;;;9177654;19;20025;-72
2021/12/28 14:22:37;;;;;;;0.60;0.28;;;10.20;99.90;;;;;;9177191;19;20023;-71
2021/12/28 14:25:45;;;;;;;0.40;0.30;;;10.20;99.90;;;;;;9180517;19;20022;-71
2021/12/28 14:28:58;;;;;;;0.65;0.30;;;10.20;99.90;;;;;;9181563;19;20022;-73
2021/12/28 14:32:09;;;;;;;0.75;0.10;;;10.10;99.90;;;;;;9180362;19;20022;-72
2021/12/28 14:35:17;;;;;;;0.50;0.25;;;10.10;99.90;;;;;;9174401;19;20029;-73
2021/12/28 14:38:22;;;;;;;0.65;0.30;;;10.10;99.90;;;;;;9173832;19;20017;-72
2021/12/28 14:41:30;;;;;;;0.57;0.38;;;10.10;99.90;;;;;;9172966;19;20018;-73
2021/12/28 14:44:37;;;;;;;0.70;0.45;;;10.10;99.90;;;;;;9173694;19;20019;-71
2021/12/28 14:47:44;;;;;;;0.93;0.47;;;10.00;99.90;;;;;;9178432;19;20342;-73
2021/12/28 14:50:49;;;;;;;0.75;0.47;;;10.00;99.90;;;;;;9178573;19;20014;-73
2021/12/28 14:54:07;;;;;;;0.85;0.50;;;10.00;99.90;;;;;;9172992;19;21515;-72
2021/12/28 14:57:16;;;;;;;0.82;0.50;;;10.00;99.90;;;;;;9175582;19;20672;-72
2021/12/28 15:00:25;;;;;;;0.70;0.30;;;10.00;99.90;;;;;;9173248;19;20483;-72
2021/12/28 15:03:34;;;;;;;1.25;0.43;;;10.00;99.90;;;;;;9171398;19;20021;-73
2021/12/28 15:06:57;;;;;;;0.75;0.45;;;10.00;99.90;;;;;;9173690;19;20018;-73
2021/12/28 15:10:10;;;;;;;0.90;0.40;;;10.00;99.90;;;;;;9166946;19;20018;-72
2021/12/28 15:13:21;;;;;;;0.47;0.30;;;10.00;99.90;;;;;;9171604;19;20026;-73
2021/12/28 15:16:28;;;;;;;1.33;0.80;;;10.00;99.90;;;;;;9169091;19;20018;-73
2021/12/28 15:19:35;;;;;;;1.65;0.60;;;10.00;99.90;;;;;;9172532;19;20019;-72
2021/12/28 15:22:40;;;;;;;0.90;0.50;;;10.00;99.90;;;;;;9174035;19;20022;-72
2021/12/28 15:25:46;;;;;;;1.27;0.40;;;10.00;99.90;;;;;;9169114;19;20052;-73
2021/12/28 15:28:54;;;;;;;0.50;0.40;;;10.00;99.90;;;;;;9172693;19;20026;-71
2021/12/28 15:31:59;;;;;;;0.95;0.60;;;10.00;99.90;;;;;;9171411;19;20018;-73
2021/12/28 15:35:04;;;;;;;0.50;0.50;;;10.00;99.90;;;;;;9173542;19;20018;-72
2021/12/28 15:38:12;;;;;;;0.82;0.50;;;10.00;99.90;;;;;;9174822;19;20022;-73
2021/12/28 15:41:16;;;;;;;1.75;0.70;;;10.00;99.90;;;;;;9175182;19;20483;-73
2021/12/28 15:44:25;;;;;;;0.70;0.50;;;10.00;99.90;;;;;;9173676;19;20018;-73
2021/12/28 15:47:30;;;;;;;0.63;0.40;;;10.00;99.90;;;;;;9170764;19;20022;-72
2021/12/28 15:50:55;;;;;;;0.50;0.50;;;10.00;99.90;;;;;;9168685;19;20082;-73
2021/12/28 15:54:00;;;;;;;0.85;0.47;;;9.90;99.90;;;;;;9170508;19;20427;-73
2021/12/28 15:57:05;;;;;;;1.45;0.80;;;9.90;99.90;;;;;;9172804;19;20018;-73
2021/12/28 16:00:15;;;;;;;1.15;0.80;;;9.80;99.90;;;;;;9174379;19;20010;-72
2021/12/28 16:03:20;;;;;;;2.13;0.85;;;9.80;99.90;;;;;;9170128;19;20017;-72
2021/12/28 16:06:26;;;;;;;1.23;0.77;;;9.80;99.90;;;;;;9170986;19;20364;-72
2021/12/28 16:09:31;;;;;;;2.67;0.88;;;9.70;99.90;;;;;;9172166;19;20011;-72
2021/12/28 16:12:37;;;;;;;0.90;0.50;;;9.70;99.90;;;;;;9174368;19;20014;-73
2021/12/28 16:15:44;;;;;;;1.20;0.70;;;9.70;99.90;;;;;;9171898;19;20010;-71
2021/12/28 16:18:50;;;;;;;2.17;0.82;;;9.70;99.90;;;;;;9159359;19;20434;-72
2021/12/28 16:21:56;;;;;;;1.75;0.80;;;9.70;99.90;;;;;;9169727;19;20011;-73
2021/12/28 16:25:03;;;;;;;1.08;0.75;;;9.70;99.90;;;;;;9170812;19;20430;-71